<?xml version="1.0" encoding="UTF-8" standalone="no" ?>
<gpx xmlns="http://www.topografix.com/GPX/1/1" xmlns:xsi="http://www.w3.org/2001/XMLSchema-instance" xsi:schemaLocation="http://www.topografix.com/GPX/1/1 http://www.topografix.com/GPX/1/1/gpx.xsd" version="1.1" creator="VisuGPX - https://www.visugpx.com">
  <metadata>
    <name>boucle par forêt d\\\'aigremont</name>
    <desc><![CDATA[boucle par forêt d\'aigremont 15km]]></desc>
  </metadata>
  <trk>
    <name><![CDATA[27 mars 2014 15:08:55]]></name>
    <cmt><![CDATA[27 mars 2014 15:08:55]]></cmt>
    <trkseg>
      <trkpt lat="48.86997" lon="2.00463">
        <ele>91</ele>
        <time>2014-03-27T14:08:56Z</time>
      </trkpt>
      <trkpt lat="48.86981" lon="2.00443">
        <ele>92</ele>
        <time>2014-03-27T14:09:12Z</time>
      </trkpt>
      <trkpt lat="48.86972" lon="2.00437">
        <ele>92</ele>
        <time>2014-03-27T14:09:17Z</time>
      </trkpt>
      <trkpt lat="48.8696" lon="2.00431">
        <ele>93</ele>
        <time>2014-03-27T14:09:25Z</time>
      </trkpt>
      <trkpt lat="48.86944" lon="2.00417">
        <ele>94</ele>
        <time>2014-03-27T14:09:41Z</time>
      </trkpt>
      <trkpt lat="48.86936" lon="2.00397">
        <ele>96</ele>
        <time>2014-03-27T14:09:50Z</time>
      </trkpt>
      <trkpt lat="48.86935" lon="2.00382">
        <ele>97</ele>
        <time>2014-03-27T14:09:57Z</time>
      </trkpt>
      <trkpt lat="48.86938" lon="2.00357">
        <ele>98</ele>
        <time>2014-03-27T14:10:05Z</time>
      </trkpt>
      <trkpt lat="48.8694" lon="2.00325">
        <ele>99</ele>
        <time>2014-03-27T14:10:24Z</time>
      </trkpt>
      <trkpt lat="48.86942" lon="2.00297">
        <ele>101</ele>
        <time>2014-03-27T14:10:36Z</time>
      </trkpt>
      <trkpt lat="48.86943" lon="2.00272">
        <ele>101</ele>
        <time>2014-03-27T14:10:47Z</time>
      </trkpt>
      <trkpt lat="48.86944" lon="2.0025">
        <ele>102</ele>
        <time>2014-03-27T14:10:56Z</time>
      </trkpt>
      <trkpt lat="48.86944" lon="2.00228">
        <ele>101</ele>
        <time>2014-03-27T14:11:07Z</time>
      </trkpt>
      <trkpt lat="48.86945" lon="2.00209">
        <ele>101</ele>
        <time>2014-03-27T14:11:14Z</time>
      </trkpt>
      <trkpt lat="48.86945" lon="2.00187">
        <ele>100</ele>
        <time>2014-03-27T14:11:23Z</time>
      </trkpt>
      <trkpt lat="48.86946" lon="2.00159">
        <ele>99</ele>
        <time>2014-03-27T14:11:37Z</time>
      </trkpt>
      <trkpt lat="48.86946" lon="2.00134">
        <ele>98</ele>
        <time>2014-03-27T14:11:55Z</time>
      </trkpt>
      <trkpt lat="48.86946" lon="2.00103">
        <ele>96</ele>
        <time>2014-03-27T14:12:09Z</time>
      </trkpt>
      <trkpt lat="48.86947" lon="2.00069">
        <ele>94</ele>
        <time>2014-03-27T14:12:28Z</time>
      </trkpt>
      <trkpt lat="48.8695" lon="2.0004">
        <ele>92</ele>
        <time>2014-03-27T14:12:43Z</time>
      </trkpt>
      <trkpt lat="48.86952" lon="2.00015">
        <ele>90</ele>
        <time>2014-03-27T14:12:57Z</time>
      </trkpt>
      <trkpt lat="48.86954" lon="1.99991">
        <ele>90</ele>
        <time>2014-03-27T14:13:18Z</time>
      </trkpt>
      <trkpt lat="48.86953" lon="1.99965">
        <ele>90</ele>
        <time>2014-03-27T14:13:31Z</time>
      </trkpt>
      <trkpt lat="48.86964" lon="1.99947">
        <ele>88</ele>
        <time>2014-03-27T14:13:43Z</time>
      </trkpt>
      <trkpt lat="48.86979" lon="1.9993">
        <ele>86</ele>
        <time>2014-03-27T14:13:59Z</time>
      </trkpt>
      <trkpt lat="48.86994" lon="1.99916">
        <ele>86</ele>
        <time>2014-03-27T14:14:10Z</time>
      </trkpt>
      <trkpt lat="48.87018" lon="1.99894">
        <ele>88</ele>
        <time>2014-03-27T14:14:30Z</time>
      </trkpt>
      <trkpt lat="48.87033" lon="1.9988">
        <ele>88</ele>
        <time>2014-03-27T14:14:38Z</time>
      </trkpt>
      <trkpt lat="48.87052" lon="1.9987">
        <ele>89</ele>
        <time>2014-03-27T14:14:49Z</time>
      </trkpt>
      <trkpt lat="48.87074" lon="1.99882">
        <ele>89</ele>
        <time>2014-03-27T14:15:06Z</time>
      </trkpt>
      <trkpt lat="48.8709" lon="1.99903">
        <ele>88</ele>
        <time>2014-03-27T14:15:23Z</time>
      </trkpt>
      <trkpt lat="48.87105" lon="1.99914">
        <ele>87</ele>
        <time>2014-03-27T14:15:33Z</time>
      </trkpt>
      <trkpt lat="48.87123" lon="1.99925">
        <ele>85</ele>
        <time>2014-03-27T14:15:54Z</time>
      </trkpt>
      <trkpt lat="48.87139" lon="1.9993">
        <ele>84</ele>
        <time>2014-03-27T14:16:02Z</time>
      </trkpt>
      <trkpt lat="48.87164" lon="1.99939">
        <ele>84</ele>
        <time>2014-03-27T14:16:20Z</time>
      </trkpt>
      <trkpt lat="48.87182" lon="1.99946">
        <ele>85</ele>
        <time>2014-03-27T14:16:32Z</time>
      </trkpt>
      <trkpt lat="48.87205" lon="1.99952">
        <ele>87</ele>
        <time>2014-03-27T14:16:45Z</time>
      </trkpt>
      <trkpt lat="48.87221" lon="1.99961">
        <ele>87</ele>
        <time>2014-03-27T14:16:55Z</time>
      </trkpt>
      <trkpt lat="48.8724" lon="1.99972">
        <ele>88</ele>
        <time>2014-03-27T14:17:08Z</time>
      </trkpt>
      <trkpt lat="48.87255" lon="1.99979">
        <ele>89</ele>
        <time>2014-03-27T14:17:17Z</time>
      </trkpt>
      <trkpt lat="48.87274" lon="1.99987">
        <ele>91</ele>
        <time>2014-03-27T14:17:28Z</time>
      </trkpt>
      <trkpt lat="48.87294" lon="1.99998">
        <ele>92</ele>
        <time>2014-03-27T14:17:41Z</time>
      </trkpt>
      <trkpt lat="48.87317" lon="1.99996">
        <ele>95</ele>
        <time>2014-03-27T14:18:04Z</time>
      </trkpt>
      <trkpt lat="48.87328" lon="1.99997">
        <ele>96</ele>
        <time>2014-03-27T14:18:12Z</time>
      </trkpt>
      <trkpt lat="48.87345" lon="2.00012">
        <ele>97</ele>
        <time>2014-03-27T14:18:26Z</time>
      </trkpt>
      <trkpt lat="48.87366" lon="2.00023">
        <ele>100</ele>
        <time>2014-03-27T14:18:47Z</time>
      </trkpt>
      <trkpt lat="48.87381" lon="2.00037">
        <ele>101</ele>
        <time>2014-03-27T14:18:57Z</time>
      </trkpt>
      <trkpt lat="48.87388" lon="2.00047">
        <ele>102</ele>
        <time>2014-03-27T14:19:02Z</time>
      </trkpt>
      <trkpt lat="48.87401" lon="2.00064">
        <ele>102</ele>
        <time>2014-03-27T14:19:12Z</time>
      </trkpt>
      <trkpt lat="48.87399" lon="2.00096">
        <ele>104</ele>
        <time>2014-03-27T14:19:39Z</time>
      </trkpt>
      <trkpt lat="48.87403" lon="2.00125">
        <ele>104</ele>
        <time>2014-03-27T14:19:59Z</time>
      </trkpt>
      <trkpt lat="48.87415" lon="2.00161">
        <ele>107</ele>
        <time>2014-03-27T14:20:29Z</time>
      </trkpt>
      <trkpt lat="48.87426" lon="2.00182">
        <ele>109</ele>
        <time>2014-03-27T14:20:44Z</time>
      </trkpt>
      <trkpt lat="48.87447" lon="2.00203">
        <ele>110</ele>
        <time>2014-03-27T14:21:02Z</time>
      </trkpt>
      <trkpt lat="48.87469" lon="2.00218">
        <ele>113</ele>
        <time>2014-03-27T14:21:29Z</time>
      </trkpt>
      <trkpt lat="48.87484" lon="2.00249">
        <ele>116</ele>
        <time>2014-03-27T14:21:43Z</time>
      </trkpt>
      <trkpt lat="48.875" lon="2.00323">
        <ele>117</ele>
        <time>2014-03-27T14:22:13Z</time>
      </trkpt>
      <trkpt lat="48.87498" lon="2.00375">
        <ele>122</ele>
        <time>2014-03-27T14:22:49Z</time>
      </trkpt>
      <trkpt lat="48.87512" lon="2.00388">
        <ele>124</ele>
        <time>2014-03-27T14:23:03Z</time>
      </trkpt>
      <trkpt lat="48.87529" lon="2.00411">
        <ele>124</ele>
        <time>2014-03-27T14:23:26Z</time>
      </trkpt>
      <trkpt lat="48.87536" lon="2.00442">
        <ele>125</ele>
        <time>2014-03-27T14:23:41Z</time>
      </trkpt>
      <trkpt lat="48.87549" lon="2.00498">
        <ele>125</ele>
        <time>2014-03-27T14:24:07Z</time>
      </trkpt>
      <trkpt lat="48.8757" lon="2.00531">
        <ele>126</ele>
        <time>2014-03-27T14:24:25Z</time>
      </trkpt>
      <trkpt lat="48.87591" lon="2.0054">
        <ele>127</ele>
        <time>2014-03-27T14:24:45Z</time>
      </trkpt>
      <trkpt lat="48.876" lon="2.00522">
        <ele>128</ele>
        <time>2014-03-27T14:24:56Z</time>
      </trkpt>
      <trkpt lat="48.87605" lon="2.00487">
        <ele>129</ele>
        <time>2014-03-27T14:25:13Z</time>
      </trkpt>
      <trkpt lat="48.87609" lon="2.00463">
        <ele>130</ele>
        <time>2014-03-27T14:25:23Z</time>
      </trkpt>
      <trkpt lat="48.87621" lon="2.00403">
        <ele>130</ele>
        <time>2014-03-27T14:25:53Z</time>
      </trkpt>
      <trkpt lat="48.87627" lon="2.00365">
        <ele>130</ele>
        <time>2014-03-27T14:26:10Z</time>
      </trkpt>
      <trkpt lat="48.8764" lon="2.00337">
        <ele>132</ele>
        <time>2014-03-27T14:26:23Z</time>
      </trkpt>
      <trkpt lat="48.87657" lon="2.00309">
        <ele>133</ele>
        <time>2014-03-27T14:26:37Z</time>
      </trkpt>
      <trkpt lat="48.87666" lon="2.00252">
        <ele>133</ele>
        <time>2014-03-27T14:27:01Z</time>
      </trkpt>
      <trkpt lat="48.87685" lon="2.00159">
        <ele>174.7</ele>
        <time>2014-03-27T14:27:48Z</time>
      </trkpt>
      <trkpt lat="48.87698" lon="2.00081">
        <ele>132</ele>
        <time>2014-03-27T14:28:26Z</time>
      </trkpt>
      <trkpt lat="48.87715" lon="2.00049">
        <ele>132</ele>
        <time>2014-03-27T14:28:48Z</time>
      </trkpt>
      <trkpt lat="48.87724" lon="2.00021">
        <ele>133</ele>
        <time>2014-03-27T14:28:54Z</time>
      </trkpt>
      <trkpt lat="48.87734" lon="1.99997">
        <ele>133</ele>
        <time>2014-03-27T14:29:08Z</time>
      </trkpt>
      <trkpt lat="48.8775" lon="1.99978">
        <ele>133</ele>
        <time>2014-03-27T14:29:23Z</time>
      </trkpt>
      <trkpt lat="48.87769" lon="1.9996">
        <ele>133</ele>
        <time>2014-03-27T14:29:37Z</time>
      </trkpt>
      <trkpt lat="48.87782" lon="1.99947">
        <ele>133</ele>
        <time>2014-03-27T14:29:51Z</time>
      </trkpt>
      <trkpt lat="48.87799" lon="1.99926">
        <ele>134</ele>
        <time>2014-03-27T14:30:08Z</time>
      </trkpt>
      <trkpt lat="48.87824" lon="1.99903">
        <ele>134</ele>
        <time>2014-03-27T14:30:28Z</time>
      </trkpt>
      <trkpt lat="48.87847" lon="1.99886">
        <ele>135</ele>
        <time>2014-03-27T14:30:45Z</time>
      </trkpt>
      <trkpt lat="48.87867" lon="1.99871">
        <ele>136</ele>
        <time>2014-03-27T14:30:57Z</time>
      </trkpt>
      <trkpt lat="48.87884" lon="1.99853">
        <ele>137</ele>
        <time>2014-03-27T14:31:10Z</time>
      </trkpt>
      <trkpt lat="48.87899" lon="1.99835">
        <ele>138</ele>
        <time>2014-03-27T14:31:20Z</time>
      </trkpt>
      <trkpt lat="48.87915" lon="1.9982">
        <ele>139</ele>
        <time>2014-03-27T14:31:32Z</time>
      </trkpt>
      <trkpt lat="48.87932" lon="1.99789">
        <ele>139</ele>
        <time>2014-03-27T14:31:49Z</time>
      </trkpt>
      <trkpt lat="48.87937" lon="1.99764">
        <ele>139</ele>
        <time>2014-03-27T14:31:58Z</time>
      </trkpt>
      <trkpt lat="48.87941" lon="1.99734">
        <ele>138</ele>
        <time>2014-03-27T14:32:13Z</time>
      </trkpt>
      <trkpt lat="48.87942" lon="1.99706">
        <ele>138</ele>
        <time>2014-03-27T14:32:25Z</time>
      </trkpt>
      <trkpt lat="48.87943" lon="1.99598">
        <ele>176</ele>
        <time>2014-03-27T14:33:13Z</time>
      </trkpt>
      <trkpt lat="48.87946" lon="1.99459">
        <ele>176</ele>
        <time>2014-03-27T14:34:18Z</time>
      </trkpt>
      <trkpt lat="48.8795" lon="1.99436">
        <ele>131</ele>
        <time>2014-03-27T14:34:28Z</time>
      </trkpt>
      <trkpt lat="48.87969" lon="1.99421">
        <ele>130</ele>
        <time>2014-03-27T14:34:48Z</time>
      </trkpt>
      <trkpt lat="48.88021" lon="1.99416">
        <ele>130</ele>
        <time>2014-03-27T14:35:14Z</time>
      </trkpt>
      <trkpt lat="48.88045" lon="1.9941">
        <ele>130</ele>
        <time>2014-03-27T14:35:24Z</time>
      </trkpt>
      <trkpt lat="48.8806" lon="1.99406">
        <ele>129</ele>
        <time>2014-03-27T14:35:31Z</time>
      </trkpt>
      <trkpt lat="48.88148" lon="1.9939">
        <ele>126</ele>
        <time>2014-03-27T14:36:03Z</time>
      </trkpt>
      <trkpt lat="48.88168" lon="1.99384">
        <ele>126</ele>
        <time>2014-03-27T14:36:08Z</time>
      </trkpt>
      <trkpt lat="48.88214" lon="1.99382">
        <ele>125</ele>
        <time>2014-03-27T14:36:23Z</time>
      </trkpt>
      <trkpt lat="48.88245" lon="1.99391">
        <ele>124</ele>
        <time>2014-03-27T14:36:39Z</time>
      </trkpt>
      <trkpt lat="48.88279" lon="1.99438">
        <ele>123</ele>
        <time>2014-03-27T14:36:57Z</time>
      </trkpt>
      <trkpt lat="48.88297" lon="1.99455">
        <ele>122</ele>
        <time>2014-03-27T14:37:02Z</time>
      </trkpt>
      <trkpt lat="48.88319" lon="1.9948">
        <ele>121</ele>
        <time>2014-03-27T14:37:13Z</time>
      </trkpt>
      <trkpt lat="48.88338" lon="1.99505">
        <ele>121</ele>
        <time>2014-03-27T14:37:24Z</time>
      </trkpt>
      <trkpt lat="48.88357" lon="1.99507">
        <ele>120</ele>
        <time>2014-03-27T14:37:35Z</time>
      </trkpt>
      <trkpt lat="48.88369" lon="1.99481">
        <ele>118</ele>
        <time>2014-03-27T14:37:44Z</time>
      </trkpt>
      <trkpt lat="48.88377" lon="1.9946">
        <ele>118</ele>
        <time>2014-03-27T14:37:50Z</time>
      </trkpt>
      <trkpt lat="48.88399" lon="1.99361">
        <ele>172.4</ele>
        <time>2014-03-27T14:38:13Z</time>
      </trkpt>
      <trkpt lat="48.88442" lon="1.99349">
        <ele>173</ele>
        <time>2014-03-27T14:38:22Z</time>
      </trkpt>
      <trkpt lat="48.88461" lon="1.99354">
        <ele>117</ele>
        <time>2014-03-27T14:38:27Z</time>
      </trkpt>
      <trkpt lat="48.88485" lon="1.9937">
        <ele>117</ele>
        <time>2014-03-27T14:38:33Z</time>
      </trkpt>
      <trkpt lat="48.88498" lon="1.99386">
        <ele>116</ele>
        <time>2014-03-27T14:38:38Z</time>
      </trkpt>
      <trkpt lat="48.88526" lon="1.99419">
        <ele>116</ele>
        <time>2014-03-27T14:38:50Z</time>
      </trkpt>
      <trkpt lat="48.88561" lon="1.99456">
        <ele>115</ele>
        <time>2014-03-27T14:39:02Z</time>
      </trkpt>
      <trkpt lat="48.88577" lon="1.99471">
        <ele>113</ele>
        <time>2014-03-27T14:39:08Z</time>
      </trkpt>
      <trkpt lat="48.88595" lon="1.99486">
        <ele>112</ele>
        <time>2014-03-27T14:39:18Z</time>
      </trkpt>
      <trkpt lat="48.8861" lon="1.99508">
        <ele>110</ele>
        <time>2014-03-27T14:39:37Z</time>
      </trkpt>
      <trkpt lat="48.8863" lon="1.9952">
        <ele>109</ele>
        <time>2014-03-27T14:39:55Z</time>
      </trkpt>
      <trkpt lat="48.88639" lon="1.99541">
        <ele>109</ele>
        <time>2014-03-27T14:40:11Z</time>
      </trkpt>
      <trkpt lat="48.88658" lon="1.99572">
        <ele>111</ele>
        <time>2014-03-27T14:40:26Z</time>
      </trkpt>
      <trkpt lat="48.88671" lon="1.9959">
        <ele>112</ele>
        <time>2014-03-27T14:40:35Z</time>
      </trkpt>
      <trkpt lat="48.88687" lon="1.9961">
        <ele>115</ele>
        <time>2014-03-27T14:40:51Z</time>
      </trkpt>
      <trkpt lat="48.88705" lon="1.99635">
        <ele>116</ele>
        <time>2014-03-27T14:41:13Z</time>
      </trkpt>
      <trkpt lat="48.88719" lon="1.99648">
        <ele>117</ele>
        <time>2014-03-27T14:41:24Z</time>
      </trkpt>
      <trkpt lat="48.88732" lon="1.9966">
        <ele>117</ele>
        <time>2014-03-27T14:41:33Z</time>
      </trkpt>
      <trkpt lat="48.88746" lon="1.99677">
        <ele>117</ele>
        <time>2014-03-27T14:41:42Z</time>
      </trkpt>
      <trkpt lat="48.88759" lon="1.99699">
        <ele>116</ele>
        <time>2014-03-27T14:41:52Z</time>
      </trkpt>
      <trkpt lat="48.88773" lon="1.99728">
        <ele>116</ele>
        <time>2014-03-27T14:42:05Z</time>
      </trkpt>
      <trkpt lat="48.88785" lon="1.99746">
        <ele>117</ele>
        <time>2014-03-27T14:42:15Z</time>
      </trkpt>
      <trkpt lat="48.88799" lon="1.99766">
        <ele>119</ele>
        <time>2014-03-27T14:42:26Z</time>
      </trkpt>
      <trkpt lat="48.8881" lon="1.99785">
        <ele>121</ele>
        <time>2014-03-27T14:42:37Z</time>
      </trkpt>
      <trkpt lat="48.88826" lon="1.99783">
        <ele>121</ele>
        <time>2014-03-27T14:42:58Z</time>
      </trkpt>
      <trkpt lat="48.88833" lon="1.99751">
        <ele>120</ele>
        <time>2014-03-27T14:43:18Z</time>
      </trkpt>
      <trkpt lat="48.88848" lon="1.99721">
        <ele>119</ele>
        <time>2014-03-27T14:43:38Z</time>
      </trkpt>
      <trkpt lat="48.88862" lon="1.99705">
        <ele>117</ele>
        <time>2014-03-27T14:43:46Z</time>
      </trkpt>
      <trkpt lat="48.88877" lon="1.99688">
        <ele>117</ele>
        <time>2014-03-27T14:44:00Z</time>
      </trkpt>
      <trkpt lat="48.88893" lon="1.99693">
        <ele>117</ele>
        <time>2014-03-27T14:44:14Z</time>
      </trkpt>
      <trkpt lat="48.88902" lon="1.99714">
        <ele>117</ele>
        <time>2014-03-27T14:44:26Z</time>
      </trkpt>
      <trkpt lat="48.88911" lon="1.99735">
        <ele>116</ele>
        <time>2014-03-27T14:44:39Z</time>
      </trkpt>
      <trkpt lat="48.88927" lon="1.99757">
        <ele>115</ele>
        <time>2014-03-27T14:44:57Z</time>
      </trkpt>
      <trkpt lat="48.88941" lon="1.99766">
        <ele>115</ele>
        <time>2014-03-27T14:45:05Z</time>
      </trkpt>
      <trkpt lat="48.8896" lon="1.99778">
        <ele>116</ele>
        <time>2014-03-27T14:45:16Z</time>
      </trkpt>
      <trkpt lat="48.88975" lon="1.99792">
        <ele>116</ele>
        <time>2014-03-27T14:45:36Z</time>
      </trkpt>
      <trkpt lat="48.88991" lon="1.99806">
        <ele>116</ele>
        <time>2014-03-27T14:45:50Z</time>
      </trkpt>
      <trkpt lat="48.89" lon="1.99842">
        <ele>116</ele>
        <time>2014-03-27T14:46:11Z</time>
      </trkpt>
      <trkpt lat="48.89001" lon="1.99893">
        <ele>117</ele>
        <time>2014-03-27T14:46:35Z</time>
      </trkpt>
      <trkpt lat="48.89016" lon="1.99912">
        <ele>120</ele>
        <time>2014-03-27T14:46:48Z</time>
      </trkpt>
      <trkpt lat="48.89034" lon="1.9992">
        <ele>121</ele>
        <time>2014-03-27T14:47:01Z</time>
      </trkpt>
      <trkpt lat="48.89051" lon="1.99951">
        <ele>119</ele>
        <time>2014-03-27T14:47:30Z</time>
      </trkpt>
      <trkpt lat="48.89056" lon="1.99975">
        <ele>119</ele>
        <time>2014-03-27T14:47:44Z</time>
      </trkpt>
      <trkpt lat="48.89058" lon="2.00001">
        <ele>117</ele>
        <time>2014-03-27T14:47:53Z</time>
      </trkpt>
      <trkpt lat="48.89076" lon="2.00017">
        <ele>116</ele>
        <time>2014-03-27T14:48:08Z</time>
      </trkpt>
      <trkpt lat="48.89097" lon="2.00028">
        <ele>116</ele>
        <time>2014-03-27T14:48:18Z</time>
      </trkpt>
      <trkpt lat="48.89112" lon="2.00051">
        <ele>112</ele>
        <time>2014-03-27T14:48:38Z</time>
      </trkpt>
      <trkpt lat="48.89119" lon="2.00075">
        <ele>109</ele>
        <time>2014-03-27T14:48:52Z</time>
      </trkpt>
      <trkpt lat="48.89131" lon="2.001">
        <ele>105</ele>
        <time>2014-03-27T14:49:17Z</time>
      </trkpt>
      <trkpt lat="48.8915" lon="2.00119">
        <ele>101</ele>
        <time>2014-03-27T14:49:28Z</time>
      </trkpt>
      <trkpt lat="48.89167" lon="2.0014">
        <ele>97</ele>
        <time>2014-03-27T14:49:43Z</time>
      </trkpt>
      <trkpt lat="48.89181" lon="2.00158">
        <ele>93</ele>
        <time>2014-03-27T14:49:56Z</time>
      </trkpt>
      <trkpt lat="48.89194" lon="2.00172">
        <ele>92</ele>
        <time>2014-03-27T14:50:05Z</time>
      </trkpt>
      <trkpt lat="48.89211" lon="2.00203">
        <ele>89</ele>
        <time>2014-03-27T14:50:31Z</time>
      </trkpt>
      <trkpt lat="48.89229" lon="2.00208">
        <ele>88</ele>
        <time>2014-03-27T14:50:47Z</time>
      </trkpt>
      <trkpt lat="48.89252" lon="2.00197">
        <ele>85</ele>
        <time>2014-03-27T14:51:07Z</time>
      </trkpt>
      <trkpt lat="48.89273" lon="2.00198">
        <ele>85</ele>
        <time>2014-03-27T14:51:27Z</time>
      </trkpt>
      <trkpt lat="48.89288" lon="2.00211">
        <ele>85</ele>
        <time>2014-03-27T14:51:41Z</time>
      </trkpt>
      <trkpt lat="48.89304" lon="2.00269">
        <ele>86</ele>
        <time>2014-03-27T14:52:24Z</time>
      </trkpt>
      <trkpt lat="48.89322" lon="2.00304">
        <ele>86</ele>
        <time>2014-03-27T14:52:39Z</time>
      </trkpt>
      <trkpt lat="48.89356" lon="2.00353">
        <ele>85</ele>
        <time>2014-03-27T14:52:51Z</time>
      </trkpt>
      <trkpt lat="48.89367" lon="2.00375">
        <ele>85</ele>
        <time>2014-03-27T14:52:56Z</time>
      </trkpt>
      <trkpt lat="48.89385" lon="2.00442">
        <ele>137.6</ele>
        <time>2014-03-27T14:53:05Z</time>
      </trkpt>
      <trkpt lat="48.89402" lon="2.0054">
        <ele>81</ele>
        <time>2014-03-27T14:53:24Z</time>
      </trkpt>
      <trkpt lat="48.89402" lon="2.00586">
        <ele>81</ele>
        <time>2014-03-27T14:53:43Z</time>
      </trkpt>
      <trkpt lat="48.89407" lon="2.0064">
        <ele>80</ele>
        <time>2014-03-27T14:54:09Z</time>
      </trkpt>
      <trkpt lat="48.89454" lon="2.00787">
        <ele>143.9</ele>
        <time>2014-03-27T14:55:07Z</time>
      </trkpt>
      <trkpt lat="48.89487" lon="2.00851">
        <ele>87</ele>
        <time>2014-03-27T14:55:48Z</time>
      </trkpt>
      <trkpt lat="48.89499" lon="2.00873">
        <ele>90</ele>
        <time>2014-03-27T14:55:59Z</time>
      </trkpt>
      <trkpt lat="48.89519" lon="2.00906">
        <ele>91</ele>
        <time>2014-03-27T14:56:17Z</time>
      </trkpt>
      <trkpt lat="48.89578" lon="2.00932">
        <ele>146.7</ele>
        <time>2014-03-27T14:57:18Z</time>
      </trkpt>
      <trkpt lat="48.89613" lon="2.00993">
        <ele>93</ele>
        <time>2014-03-27T14:57:59Z</time>
      </trkpt>
      <trkpt lat="48.89629" lon="2.01013">
        <ele>100</ele>
        <time>2014-03-27T14:58:13Z</time>
      </trkpt>
      <trkpt lat="48.8965" lon="2.01033">
        <ele>101</ele>
        <time>2014-03-27T14:58:37Z</time>
      </trkpt>
      <trkpt lat="48.89659" lon="2.01055">
        <ele>102</ele>
        <time>2014-03-27T14:58:55Z</time>
      </trkpt>
      <trkpt lat="48.89661" lon="2.01079">
        <ele>103</ele>
        <time>2014-03-27T14:59:07Z</time>
      </trkpt>
      <trkpt lat="48.8966" lon="2.01114">
        <ele>104</ele>
        <time>2014-03-27T14:59:24Z</time>
      </trkpt>
      <trkpt lat="48.89662" lon="2.01143">
        <ele>104</ele>
        <time>2014-03-27T14:59:42Z</time>
      </trkpt>
      <trkpt lat="48.89681" lon="2.01156">
        <ele>105</ele>
        <time>2014-03-27T15:00:02Z</time>
      </trkpt>
      <trkpt lat="48.89698" lon="2.01184">
        <ele>105</ele>
        <time>2014-03-27T15:00:29Z</time>
      </trkpt>
      <trkpt lat="48.89709" lon="2.01202">
        <ele>105</ele>
        <time>2014-03-27T15:00:35Z</time>
      </trkpt>
      <trkpt lat="48.89715" lon="2.01229">
        <ele>105</ele>
        <time>2014-03-27T15:00:50Z</time>
      </trkpt>
      <trkpt lat="48.89696" lon="2.01304">
        <ele>105</ele>
        <time>2014-03-27T15:01:44Z</time>
      </trkpt>
      <trkpt lat="48.8967" lon="2.01448">
        <ele>159.7</ele>
        <time>2014-03-27T15:02:52Z</time>
      </trkpt>
      <trkpt lat="48.89645" lon="2.01496">
        <ele>106</ele>
        <time>2014-03-27T15:03:20Z</time>
      </trkpt>
      <trkpt lat="48.8962" lon="2.01525">
        <ele>107</ele>
        <time>2014-03-27T15:03:45Z</time>
      </trkpt>
      <trkpt lat="48.89599" lon="2.01554">
        <ele>109</ele>
        <time>2014-03-27T15:04:03Z</time>
      </trkpt>
      <trkpt lat="48.89586" lon="2.01575">
        <ele>109</ele>
        <time>2014-03-27T15:04:12Z</time>
      </trkpt>
      <trkpt lat="48.89554" lon="2.01615">
        <ele>109</ele>
        <time>2014-03-27T15:04:43Z</time>
      </trkpt>
      <trkpt lat="48.89549" lon="2.01689">
        <ele>162.6</ele>
        <time>2014-03-27T15:05:08Z</time>
      </trkpt>
      <trkpt lat="48.89548" lon="2.01819">
        <ele>109</ele>
        <time>2014-03-27T15:05:35Z</time>
      </trkpt>
      <trkpt lat="48.89516" lon="2.01863">
        <ele>109</ele>
        <time>2014-03-27T15:05:50Z</time>
      </trkpt>
      <trkpt lat="48.89473" lon="2.01936">
        <ele>109</ele>
        <time>2014-03-27T15:06:14Z</time>
      </trkpt>
      <trkpt lat="48.89431" lon="2.02029">
        <ele>157.5</ele>
        <time>2014-03-27T15:06:42Z</time>
      </trkpt>
      <trkpt lat="48.89406" lon="2.02112">
        <ele>152.3</ele>
        <time>2014-03-27T15:06:55Z</time>
      </trkpt>
      <trkpt lat="48.89396" lon="2.02165">
        <ele>109</ele>
        <time>2014-03-27T15:07:14Z</time>
      </trkpt>
      <trkpt lat="48.89406" lon="2.02189">
        <ele>109</ele>
        <time>2014-03-27T15:07:39Z</time>
      </trkpt>
      <trkpt lat="48.89405" lon="2.02217">
        <ele>108</ele>
        <time>2014-03-27T15:07:58Z</time>
      </trkpt>
      <trkpt lat="48.89415" lon="2.02246">
        <ele>107</ele>
        <time>2014-03-27T15:08:16Z</time>
      </trkpt>
      <trkpt lat="48.89419" lon="2.02275">
        <ele>106</ele>
        <time>2014-03-27T15:08:31Z</time>
      </trkpt>
      <trkpt lat="48.89406" lon="2.023">
        <ele>105</ele>
        <time>2014-03-27T15:08:46Z</time>
      </trkpt>
      <trkpt lat="48.89401" lon="2.02331">
        <ele>104</ele>
        <time>2014-03-27T15:09:02Z</time>
      </trkpt>
      <trkpt lat="48.894" lon="2.0236">
        <ele>103</ele>
        <time>2014-03-27T15:09:15Z</time>
      </trkpt>
      <trkpt lat="48.89406" lon="2.02447">
        <ele>128.1</ele>
        <time>2014-03-27T15:09:51Z</time>
      </trkpt>
      <trkpt lat="48.89409" lon="2.0249">
        <ele>103</ele>
        <time>2014-03-27T15:10:15Z</time>
      </trkpt>
      <trkpt lat="48.89395" lon="2.02415">
        <ele>101</ele>
        <time>2014-03-27T15:10:46Z</time>
      </trkpt>
      <trkpt lat="48.89388" lon="2.02394">
        <ele>98</ele>
        <time>2014-03-27T15:11:01Z</time>
      </trkpt>
      <trkpt lat="48.89377" lon="2.02371">
        <ele>96</ele>
        <time>2014-03-27T15:11:14Z</time>
      </trkpt>
      <trkpt lat="48.89368" lon="2.02349">
        <ele>94</ele>
        <time>2014-03-27T15:11:27Z</time>
      </trkpt>
      <trkpt lat="48.89359" lon="2.02323">
        <ele>92</ele>
        <time>2014-03-27T15:11:41Z</time>
      </trkpt>
      <trkpt lat="48.89342" lon="2.02273">
        <ele>89</ele>
        <time>2014-03-27T15:12:06Z</time>
      </trkpt>
      <trkpt lat="48.89332" lon="2.02251">
        <ele>89</ele>
        <time>2014-03-27T15:12:18Z</time>
      </trkpt>
      <trkpt lat="48.89308" lon="2.02233">
        <ele>89</ele>
        <time>2014-03-27T15:12:36Z</time>
      </trkpt>
      <trkpt lat="48.89297" lon="2.02214">
        <ele>88</ele>
        <time>2014-03-27T15:12:47Z</time>
      </trkpt>
      <trkpt lat="48.89286" lon="2.02194">
        <ele>86</ele>
        <time>2014-03-27T15:12:57Z</time>
      </trkpt>
      <trkpt lat="48.89271" lon="2.02175">
        <ele>85</ele>
        <time>2014-03-27T15:13:09Z</time>
      </trkpt>
      <trkpt lat="48.89253" lon="2.02171">
        <ele>85</ele>
        <time>2014-03-27T15:13:22Z</time>
      </trkpt>
      <trkpt lat="48.89238" lon="2.02167">
        <ele>85</ele>
        <time>2014-03-27T15:13:34Z</time>
      </trkpt>
      <trkpt lat="48.89217" lon="2.02166">
        <ele>84</ele>
        <time>2014-03-27T15:13:50Z</time>
      </trkpt>
      <trkpt lat="48.89194" lon="2.02165">
        <ele>84</ele>
        <time>2014-03-27T15:14:11Z</time>
      </trkpt>
      <trkpt lat="48.89178" lon="2.02166">
        <ele>82</ele>
        <time>2014-03-27T15:14:20Z</time>
      </trkpt>
      <trkpt lat="48.89157" lon="2.02166">
        <ele>81</ele>
        <time>2014-03-27T15:14:30Z</time>
      </trkpt>
      <trkpt lat="48.8914" lon="2.02168">
        <ele>79</ele>
        <time>2014-03-27T15:14:40Z</time>
      </trkpt>
      <trkpt lat="48.89124" lon="2.02166">
        <ele>78</ele>
        <time>2014-03-27T15:14:53Z</time>
      </trkpt>
      <trkpt lat="48.89104" lon="2.02165">
        <ele>78</ele>
        <time>2014-03-27T15:15:15Z</time>
      </trkpt>
      <trkpt lat="48.89088" lon="2.02169">
        <ele>79</ele>
        <time>2014-03-27T15:15:22Z</time>
      </trkpt>
      <trkpt lat="48.89069" lon="2.02176">
        <ele>80</ele>
        <time>2014-03-27T15:15:39Z</time>
      </trkpt>
      <trkpt lat="48.89052" lon="2.02176">
        <ele>80</ele>
        <time>2014-03-27T15:15:58Z</time>
      </trkpt>
      <trkpt lat="48.89036" lon="2.02169">
        <ele>80</ele>
        <time>2014-03-27T15:16:02Z</time>
      </trkpt>
      <trkpt lat="48.88998" lon="2.02151">
        <ele>80</ele>
        <time>2014-03-27T15:16:31Z</time>
      </trkpt>
      <trkpt lat="48.88978" lon="2.02139">
        <ele>81</ele>
        <time>2014-03-27T15:16:42Z</time>
      </trkpt>
      <trkpt lat="48.88951" lon="2.02116">
        <ele>82</ele>
        <time>2014-03-27T15:17:12Z</time>
      </trkpt>
      <trkpt lat="48.88922" lon="2.02081">
        <ele>122.2</ele>
        <time>2014-03-27T15:17:48Z</time>
      </trkpt>
      <trkpt lat="48.88878" lon="2.02051">
        <ele>125.2</ele>
        <time>2014-03-27T15:18:12Z</time>
      </trkpt>
      <trkpt lat="48.88847" lon="2.02028">
        <ele>83</ele>
        <time>2014-03-27T15:18:27Z</time>
      </trkpt>
      <trkpt lat="48.88824" lon="2.01976">
        <ele>86</ele>
        <time>2014-03-27T15:19:06Z</time>
      </trkpt>
      <trkpt lat="48.88812" lon="2.01953">
        <ele>86</ele>
        <time>2014-03-27T15:19:17Z</time>
      </trkpt>
      <trkpt lat="48.88796" lon="2.01915">
        <ele>87</ele>
        <time>2014-03-27T15:19:41Z</time>
      </trkpt>
      <trkpt lat="48.88783" lon="2.01901">
        <ele>88</ele>
        <time>2014-03-27T15:19:56Z</time>
      </trkpt>
      <trkpt lat="48.88768" lon="2.01885">
        <ele>89</ele>
        <time>2014-03-27T15:20:09Z</time>
      </trkpt>
      <trkpt lat="48.88755" lon="2.01871">
        <ele>93</ele>
        <time>2014-03-27T15:20:21Z</time>
      </trkpt>
      <trkpt lat="48.88717" lon="2.01836">
        <ele>142.7</ele>
        <time>2014-03-27T15:20:51Z</time>
      </trkpt>
      <trkpt lat="48.88688" lon="2.01863">
        <ele>98</ele>
        <time>2014-03-27T15:21:24Z</time>
      </trkpt>
      <trkpt lat="48.88675" lon="2.01889">
        <ele>98</ele>
        <time>2014-03-27T15:21:41Z</time>
      </trkpt>
      <trkpt lat="48.88633" lon="2.01942">
        <ele>99</ele>
        <time>2014-03-27T15:22:17Z</time>
      </trkpt>
      <trkpt lat="48.88626" lon="2.01964">
        <ele>99</ele>
        <time>2014-03-27T15:22:28Z</time>
      </trkpt>
      <trkpt lat="48.88609" lon="2.01983">
        <ele>101</ele>
        <time>2014-03-27T15:22:52Z</time>
      </trkpt>
      <trkpt lat="48.88591" lon="2.01963">
        <ele>147.8</ele>
        <time>2014-03-27T15:22:59Z</time>
      </trkpt>
      <trkpt lat="48.88464" lon="2.01784">
        <ele>105</ele>
        <time>2014-03-27T15:23:29Z</time>
      </trkpt>
      <trkpt lat="48.88431" lon="2.0176">
        <ele>106</ele>
        <time>2014-03-27T15:23:43Z</time>
      </trkpt>
      <trkpt lat="48.88415" lon="2.01747">
        <ele>109</ele>
        <time>2014-03-27T15:23:53Z</time>
      </trkpt>
      <trkpt lat="48.88382" lon="2.01703">
        <ele>168.2</ele>
        <time>2014-03-27T15:24:17Z</time>
      </trkpt>
      <trkpt lat="48.88364" lon="2.01719">
        <ele>113</ele>
        <time>2014-03-27T15:24:30Z</time>
      </trkpt>
      <trkpt lat="48.88353" lon="2.0175">
        <ele>116</ele>
        <time>2014-03-27T15:24:48Z</time>
      </trkpt>
      <trkpt lat="48.88338" lon="2.01774">
        <ele>123</ele>
        <time>2014-03-27T15:25:02Z</time>
      </trkpt>
      <trkpt lat="48.88327" lon="2.01812">
        <ele>128</ele>
        <time>2014-03-27T15:25:25Z</time>
      </trkpt>
      <trkpt lat="48.88323" lon="2.01837">
        <ele>129</ele>
        <time>2014-03-27T15:25:34Z</time>
      </trkpt>
      <trkpt lat="48.88314" lon="2.01866">
        <ele>129</ele>
        <time>2014-03-27T15:25:46Z</time>
      </trkpt>
      <trkpt lat="48.88305" lon="2.01887">
        <ele>129</ele>
        <time>2014-03-27T15:25:55Z</time>
      </trkpt>
      <trkpt lat="48.88302" lon="2.01913">
        <ele>130</ele>
        <time>2014-03-27T15:26:06Z</time>
      </trkpt>
      <trkpt lat="48.88298" lon="2.01938">
        <ele>130</ele>
        <time>2014-03-27T15:26:17Z</time>
      </trkpt>
      <trkpt lat="48.8829" lon="2.01961">
        <ele>130</ele>
        <time>2014-03-27T15:26:22Z</time>
      </trkpt>
      <trkpt lat="48.88264" lon="2.02044">
        <ele>130</ele>
        <time>2014-03-27T15:26:46Z</time>
      </trkpt>
      <trkpt lat="48.88276" lon="2.02066">
        <ele>129</ele>
        <time>2014-03-27T15:26:57Z</time>
      </trkpt>
      <trkpt lat="48.88318" lon="2.02099">
        <ele>164.4</ele>
        <time>2014-03-27T15:27:18Z</time>
      </trkpt>
      <trkpt lat="48.88341" lon="2.02167">
        <ele>128</ele>
        <time>2014-03-27T15:27:36Z</time>
      </trkpt>
      <trkpt lat="48.8834" lon="2.02198">
        <ele>126</ele>
        <time>2014-03-27T15:27:44Z</time>
      </trkpt>
      <trkpt lat="48.8834" lon="2.02227">
        <ele>126</ele>
        <time>2014-03-27T15:27:52Z</time>
      </trkpt>
      <trkpt lat="48.88339" lon="2.02271">
        <ele>124</ele>
        <time>2014-03-27T15:28:01Z</time>
      </trkpt>
      <trkpt lat="48.88338" lon="2.02303">
        <ele>123</ele>
        <time>2014-03-27T15:28:07Z</time>
      </trkpt>
      <trkpt lat="48.88335" lon="2.02326">
        <ele>122</ele>
        <time>2014-03-27T15:28:14Z</time>
      </trkpt>
      <trkpt lat="48.8836" lon="2.02381">
        <ele>169</ele>
        <time>2014-03-27T15:28:30Z</time>
      </trkpt>
      <trkpt lat="48.88398" lon="2.02505">
        <ele>120</ele>
        <time>2014-03-27T15:29:04Z</time>
      </trkpt>
      <trkpt lat="48.88405" lon="2.02553">
        <ele>119</ele>
        <time>2014-03-27T15:29:15Z</time>
      </trkpt>
      <trkpt lat="48.8841" lon="2.0258">
        <ele>117</ele>
        <time>2014-03-27T15:29:20Z</time>
      </trkpt>
      <trkpt lat="48.88415" lon="2.02611">
        <ele>115</ele>
        <time>2014-03-27T15:29:27Z</time>
      </trkpt>
      <trkpt lat="48.88423" lon="2.02649">
        <ele>114</ele>
        <time>2014-03-27T15:29:38Z</time>
      </trkpt>
      <trkpt lat="48.88429" lon="2.02699">
        <ele>113</ele>
        <time>2014-03-27T15:29:45Z</time>
      </trkpt>
      <trkpt lat="48.8843" lon="2.02742">
        <ele>112</ele>
        <time>2014-03-27T15:29:52Z</time>
      </trkpt>
      <trkpt lat="48.88438" lon="2.02795">
        <ele>112</ele>
        <time>2014-03-27T15:29:59Z</time>
      </trkpt>
      <trkpt lat="48.88434" lon="2.02848">
        <ele>112</ele>
        <time>2014-03-27T15:30:15Z</time>
      </trkpt>
      <trkpt lat="48.88398" lon="2.0285">
        <ele>112</ele>
        <time>2014-03-27T15:30:27Z</time>
      </trkpt>
      <trkpt lat="48.88382" lon="2.02846">
        <ele>112</ele>
        <time>2014-03-27T15:30:32Z</time>
      </trkpt>
      <trkpt lat="48.88323" lon="2.02835">
        <ele>112</ele>
        <time>2014-03-27T15:30:54Z</time>
      </trkpt>
      <trkpt lat="48.88288" lon="2.02834">
        <ele>113</ele>
        <time>2014-03-27T15:31:04Z</time>
      </trkpt>
      <trkpt lat="48.88278" lon="2.02834">
        <ele>113</ele>
        <time>2014-03-27T15:31:07Z</time>
      </trkpt>
      <trkpt lat="48.88269" lon="2.02833">
        <ele>113</ele>
        <time>2014-03-27T15:31:10Z</time>
      </trkpt>
      <trkpt lat="48.88239" lon="2.02836">
        <ele>114</ele>
        <time>2014-03-27T15:31:19Z</time>
      </trkpt>
      <trkpt lat="48.88217" lon="2.02838">
        <ele>114</ele>
        <time>2014-03-27T15:31:25Z</time>
      </trkpt>
      <trkpt lat="48.88195" lon="2.02856">
        <ele>115</ele>
        <time>2014-03-27T15:31:50Z</time>
      </trkpt>
      <trkpt lat="48.8818" lon="2.02868">
        <ele>117</ele>
        <time>2014-03-27T15:32:04Z</time>
      </trkpt>
      <trkpt lat="48.88163" lon="2.02872">
        <ele>119</ele>
        <time>2014-03-27T15:32:24Z</time>
      </trkpt>
      <trkpt lat="48.88152" lon="2.02908">
        <ele>120</ele>
        <time>2014-03-27T15:32:37Z</time>
      </trkpt>
      <trkpt lat="48.88143" lon="2.02929">
        <ele>122</ele>
        <time>2014-03-27T15:32:48Z</time>
      </trkpt>
      <trkpt lat="48.88136" lon="2.02969">
        <ele>126</ele>
        <time>2014-03-27T15:33:14Z</time>
      </trkpt>
      <trkpt lat="48.88139" lon="2.03009">
        <ele>126</ele>
        <time>2014-03-27T15:33:30Z</time>
      </trkpt>
      <trkpt lat="48.88139" lon="2.03041">
        <ele>127</ele>
        <time>2014-03-27T15:33:42Z</time>
      </trkpt>
      <trkpt lat="48.88138" lon="2.03192">
        <ele>127</ele>
        <time>2014-03-27T15:34:17Z</time>
      </trkpt>
      <trkpt lat="48.88144" lon="2.03259">
        <ele>126</ele>
        <time>2014-03-27T15:34:30Z</time>
      </trkpt>
      <trkpt lat="48.88146" lon="2.03284">
        <ele>126</ele>
        <time>2014-03-27T15:34:37Z</time>
      </trkpt>
      <trkpt lat="48.8814" lon="2.03326">
        <ele>125</ele>
        <time>2014-03-27T15:34:46Z</time>
      </trkpt>
      <trkpt lat="48.88129" lon="2.03358">
        <ele>125</ele>
        <time>2014-03-27T15:34:52Z</time>
      </trkpt>
      <trkpt lat="48.88123" lon="2.0338">
        <ele>125</ele>
        <time>2014-03-27T15:34:57Z</time>
      </trkpt>
      <trkpt lat="48.88107" lon="2.0343">
        <ele>125</ele>
        <time>2014-03-27T15:35:08Z</time>
      </trkpt>
      <trkpt lat="48.88093" lon="2.03475">
        <ele>125</ele>
        <time>2014-03-27T15:35:22Z</time>
      </trkpt>
      <trkpt lat="48.88074" lon="2.03564">
        <ele>125</ele>
        <time>2014-03-27T15:35:41Z</time>
      </trkpt>
      <trkpt lat="48.88057" lon="2.03614">
        <ele>125</ele>
        <time>2014-03-27T15:35:52Z</time>
      </trkpt>
      <trkpt lat="48.88048" lon="2.03635">
        <ele>125</ele>
        <time>2014-03-27T15:35:57Z</time>
      </trkpt>
      <trkpt lat="48.88026" lon="2.03692">
        <ele>125</ele>
        <time>2014-03-27T15:36:08Z</time>
      </trkpt>
      <trkpt lat="48.87982" lon="2.03836">
        <ele>125</ele>
        <time>2014-03-27T15:36:35Z</time>
      </trkpt>
      <trkpt lat="48.87978" lon="2.03852">
        <ele>126</ele>
        <time>2014-03-27T15:36:38Z</time>
      </trkpt>
      <trkpt lat="48.87974" lon="2.03866">
        <ele>127</ele>
        <time>2014-03-27T15:36:40Z</time>
      </trkpt>
      <trkpt lat="48.8797" lon="2.03879">
        <ele>127</ele>
        <time>2014-03-27T15:36:42Z</time>
      </trkpt>
      <trkpt lat="48.87962" lon="2.03892">
        <ele>128</ele>
        <time>2014-03-27T15:36:45Z</time>
      </trkpt>
      <trkpt lat="48.87952" lon="2.03908">
        <ele>129</ele>
        <time>2014-03-27T15:36:50Z</time>
      </trkpt>
      <trkpt lat="48.87946" lon="2.03916">
        <ele>129</ele>
        <time>2014-03-27T15:36:53Z</time>
      </trkpt>
      <trkpt lat="48.8792" lon="2.03959">
        <ele>129</ele>
        <time>2014-03-27T15:37:31Z</time>
      </trkpt>
      <trkpt lat="48.87898" lon="2.03979">
        <ele>129</ele>
        <time>2014-03-27T15:37:46Z</time>
      </trkpt>
      <trkpt lat="48.87864" lon="2.04023">
        <ele>130</ele>
        <time>2014-03-27T15:38:26Z</time>
      </trkpt>
      <trkpt lat="48.87838" lon="2.04042">
        <ele>131</ele>
        <time>2014-03-27T15:38:48Z</time>
      </trkpt>
      <trkpt lat="48.87805" lon="2.0406">
        <ele>132</ele>
        <time>2014-03-27T15:39:07Z</time>
      </trkpt>
      <trkpt lat="48.87788" lon="2.04073">
        <ele>132</ele>
        <time>2014-03-27T15:39:21Z</time>
      </trkpt>
      <trkpt lat="48.87774" lon="2.04085">
        <ele>132</ele>
        <time>2014-03-27T15:39:31Z</time>
      </trkpt>
      <trkpt lat="48.87753" lon="2.041">
        <ele>132</ele>
        <time>2014-03-27T15:39:40Z</time>
      </trkpt>
      <trkpt lat="48.87737" lon="2.04117">
        <ele>132</ele>
        <time>2014-03-27T15:39:50Z</time>
      </trkpt>
      <trkpt lat="48.87718" lon="2.04114">
        <ele>134</ele>
        <time>2014-03-27T15:40:08Z</time>
      </trkpt>
      <trkpt lat="48.87695" lon="2.04105">
        <ele>135</ele>
        <time>2014-03-27T15:40:30Z</time>
      </trkpt>
      <trkpt lat="48.87671" lon="2.04095">
        <ele>137</ele>
        <time>2014-03-27T15:40:43Z</time>
      </trkpt>
      <trkpt lat="48.87656" lon="2.04088">
        <ele>139</ele>
        <time>2014-03-27T15:40:49Z</time>
      </trkpt>
      <trkpt lat="48.8764" lon="2.04077">
        <ele>140</ele>
        <time>2014-03-27T15:40:59Z</time>
      </trkpt>
      <trkpt lat="48.8763" lon="2.04039">
        <ele>175.2</ele>
        <time>2014-03-27T15:41:26Z</time>
      </trkpt>
      <trkpt lat="48.87522" lon="2.03746">
        <ele>142</ele>
        <time>2014-03-27T15:42:09Z</time>
      </trkpt>
      <trkpt lat="48.87518" lon="2.03733">
        <ele>142</ele>
        <time>2014-03-27T15:42:11Z</time>
      </trkpt>
      <trkpt lat="48.87511" lon="2.0371">
        <ele>141</ele>
        <time>2014-03-27T15:42:15Z</time>
      </trkpt>
      <trkpt lat="48.87505" lon="2.0369">
        <ele>141</ele>
        <time>2014-03-27T15:42:19Z</time>
      </trkpt>
      <trkpt lat="48.87499" lon="2.03675">
        <ele>141</ele>
        <time>2014-03-27T15:42:22Z</time>
      </trkpt>
      <trkpt lat="48.87494" lon="2.03661">
        <ele>140</ele>
        <time>2014-03-27T15:42:25Z</time>
      </trkpt>
      <trkpt lat="48.87458" lon="2.03555">
        <ele>142</ele>
        <time>2014-03-27T15:42:50Z</time>
      </trkpt>
      <trkpt lat="48.87447" lon="2.03527">
        <ele>143</ele>
        <time>2014-03-27T15:42:59Z</time>
      </trkpt>
      <trkpt lat="48.87396" lon="2.03507">
        <ele>144</ele>
        <time>2014-03-27T15:43:19Z</time>
      </trkpt>
      <trkpt lat="48.87382" lon="2.03498">
        <ele>145</ele>
        <time>2014-03-27T15:43:23Z</time>
      </trkpt>
      <trkpt lat="48.87349" lon="2.03481">
        <ele>145</ele>
        <time>2014-03-27T15:43:36Z</time>
      </trkpt>
      <trkpt lat="48.87304" lon="2.03457">
        <ele>145</ele>
        <time>2014-03-27T15:43:50Z</time>
      </trkpt>
      <trkpt lat="48.87287" lon="2.03441">
        <ele>145</ele>
        <time>2014-03-27T15:43:55Z</time>
      </trkpt>
      <trkpt lat="48.87267" lon="2.03427">
        <ele>144</ele>
        <time>2014-03-27T15:44:01Z</time>
      </trkpt>
      <trkpt lat="48.87233" lon="2.03409">
        <ele>144</ele>
        <time>2014-03-27T15:44:13Z</time>
      </trkpt>
      <trkpt lat="48.87155" lon="2.03373">
        <ele>178.2</ele>
        <time>2014-03-27T15:44:45Z</time>
      </trkpt>
      <trkpt lat="48.87078" lon="2.03329">
        <ele>176</ele>
        <time>2014-03-27T15:45:04Z</time>
      </trkpt>
      <trkpt lat="48.87022" lon="2.03281">
        <ele>176.9</ele>
        <time>2014-03-27T15:45:22Z</time>
      </trkpt>
      <trkpt lat="48.8699" lon="2.03255">
        <ele>142</ele>
        <time>2014-03-27T15:45:38Z</time>
      </trkpt>
      <trkpt lat="48.8697" lon="2.03269">
        <ele>141</ele>
        <time>2014-03-27T15:45:48Z</time>
      </trkpt>
      <trkpt lat="48.8696" lon="2.03287">
        <ele>140</ele>
        <time>2014-03-27T15:45:59Z</time>
      </trkpt>
      <trkpt lat="48.86952" lon="2.03311">
        <ele>140</ele>
        <time>2014-03-27T15:46:14Z</time>
      </trkpt>
      <trkpt lat="48.86941" lon="2.03328">
        <ele>141</ele>
        <time>2014-03-27T15:46:25Z</time>
      </trkpt>
      <trkpt lat="48.86924" lon="2.0335">
        <ele>143</ele>
        <time>2014-03-27T15:46:36Z</time>
      </trkpt>
      <trkpt lat="48.86907" lon="2.03372">
        <ele>143</ele>
        <time>2014-03-27T15:46:46Z</time>
      </trkpt>
      <trkpt lat="48.86895" lon="2.03395">
        <ele>144</ele>
        <time>2014-03-27T15:46:58Z</time>
      </trkpt>
      <trkpt lat="48.86882" lon="2.03412">
        <ele>145</ele>
        <time>2014-03-27T15:47:15Z</time>
      </trkpt>
      <trkpt lat="48.8687" lon="2.03428">
        <ele>145</ele>
        <time>2014-03-27T15:47:25Z</time>
      </trkpt>
      <trkpt lat="48.8686" lon="2.03449">
        <ele>146</ele>
        <time>2014-03-27T15:47:37Z</time>
      </trkpt>
      <trkpt lat="48.86852" lon="2.0347">
        <ele>147</ele>
        <time>2014-03-27T15:47:45Z</time>
      </trkpt>
      <trkpt lat="48.8684" lon="2.03487">
        <ele>147</ele>
        <time>2014-03-27T15:47:58Z</time>
      </trkpt>
      <trkpt lat="48.86829" lon="2.03513">
        <ele>148</ele>
        <time>2014-03-27T15:48:17Z</time>
      </trkpt>
      <trkpt lat="48.86821" lon="2.03536">
        <ele>148</ele>
        <time>2014-03-27T15:48:26Z</time>
      </trkpt>
      <trkpt lat="48.86812" lon="2.03556">
        <ele>146</ele>
        <time>2014-03-27T15:48:35Z</time>
      </trkpt>
      <trkpt lat="48.86796" lon="2.03568">
        <ele>145</ele>
        <time>2014-03-27T15:48:48Z</time>
      </trkpt>
      <trkpt lat="48.86774" lon="2.0356">
        <ele>145</ele>
        <time>2014-03-27T15:49:04Z</time>
      </trkpt>
      <trkpt lat="48.86755" lon="2.03554">
        <ele>145</ele>
        <time>2014-03-27T15:49:22Z</time>
      </trkpt>
      <trkpt lat="48.86736" lon="2.03545">
        <ele>145</ele>
        <time>2014-03-27T15:49:39Z</time>
      </trkpt>
      <trkpt lat="48.86722" lon="2.03525">
        <ele>144</ele>
        <time>2014-03-27T15:49:52Z</time>
      </trkpt>
      <trkpt lat="48.86706" lon="2.03504">
        <ele>143</ele>
        <time>2014-03-27T15:50:04Z</time>
      </trkpt>
      <trkpt lat="48.86696" lon="2.03486">
        <ele>143</ele>
        <time>2014-03-27T15:50:12Z</time>
      </trkpt>
      <trkpt lat="48.86674" lon="2.03439">
        <ele>143</ele>
        <time>2014-03-27T15:50:40Z</time>
      </trkpt>
      <trkpt lat="48.86664" lon="2.03417">
        <ele>142</ele>
        <time>2014-03-27T15:50:46Z</time>
      </trkpt>
      <trkpt lat="48.86654" lon="2.03398">
        <ele>142</ele>
        <time>2014-03-27T15:50:54Z</time>
      </trkpt>
      <trkpt lat="48.86644" lon="2.03379">
        <ele>140</ele>
        <time>2014-03-27T15:51:05Z</time>
      </trkpt>
      <trkpt lat="48.86634" lon="2.03357">
        <ele>139</ele>
        <time>2014-03-27T15:51:22Z</time>
      </trkpt>
      <trkpt lat="48.86622" lon="2.03339">
        <ele>138</ele>
        <time>2014-03-27T15:51:35Z</time>
      </trkpt>
      <trkpt lat="48.86618" lon="2.03315">
        <ele>137</ele>
        <time>2014-03-27T15:51:52Z</time>
      </trkpt>
      <trkpt lat="48.86614" lon="2.03284">
        <ele>136</ele>
        <time>2014-03-27T15:52:08Z</time>
      </trkpt>
      <trkpt lat="48.86605" lon="2.03265">
        <ele>135</ele>
        <time>2014-03-27T15:52:18Z</time>
      </trkpt>
      <trkpt lat="48.86601" lon="2.03242">
        <ele>133</ele>
        <time>2014-03-27T15:52:29Z</time>
      </trkpt>
      <trkpt lat="48.86609" lon="2.03222">
        <ele>132</ele>
        <time>2014-03-27T15:52:42Z</time>
      </trkpt>
      <trkpt lat="48.86621" lon="2.03207">
        <ele>132</ele>
        <time>2014-03-27T15:52:53Z</time>
      </trkpt>
      <trkpt lat="48.86631" lon="2.03185">
        <ele>133</ele>
        <time>2014-03-27T15:53:05Z</time>
      </trkpt>
      <trkpt lat="48.86647" lon="2.0316">
        <ele>133</ele>
        <time>2014-03-27T15:53:21Z</time>
      </trkpt>
      <trkpt lat="48.86672" lon="2.0313">
        <ele>132</ele>
        <time>2014-03-27T15:53:35Z</time>
      </trkpt>
      <trkpt lat="48.86691" lon="2.03093">
        <ele>132</ele>
        <time>2014-03-27T15:53:47Z</time>
      </trkpt>
      <trkpt lat="48.86724" lon="2.03019">
        <ele>132</ele>
        <time>2014-03-27T15:54:06Z</time>
      </trkpt>
      <trkpt lat="48.86736" lon="2.02989">
        <ele>131</ele>
        <time>2014-03-27T15:54:15Z</time>
      </trkpt>
      <trkpt lat="48.86746" lon="2.0295">
        <ele>130</ele>
        <time>2014-03-27T15:54:25Z</time>
      </trkpt>
      <trkpt lat="48.8676" lon="2.02913">
        <ele>129</ele>
        <time>2014-03-27T15:54:33Z</time>
      </trkpt>
      <trkpt lat="48.86765" lon="2.029">
        <ele>129</ele>
        <time>2014-03-27T15:54:34Z</time>
      </trkpt>
      <trkpt lat="48.86769" lon="2.02886">
        <ele>128</ele>
        <time>2014-03-27T15:54:36Z</time>
      </trkpt>
      <trkpt lat="48.86811" lon="2.02744">
        <ele>124</ele>
        <time>2014-03-27T15:55:07Z</time>
      </trkpt>
      <trkpt lat="48.86873" lon="2.02544">
        <ele>175.4</ele>
        <time>2014-03-27T15:55:49Z</time>
      </trkpt>
      <trkpt lat="48.86921" lon="2.02378">
        <ele>125</ele>
        <time>2014-03-27T15:56:23Z</time>
      </trkpt>
      <trkpt lat="48.86926" lon="2.02365">
        <ele>125</ele>
        <time>2014-03-27T15:56:25Z</time>
      </trkpt>
      <trkpt lat="48.8693" lon="2.02353">
        <ele>125</ele>
        <time>2014-03-27T15:56:27Z</time>
      </trkpt>
      <trkpt lat="48.86961" lon="2.02244">
        <ele>126</ele>
        <time>2014-03-27T15:56:48Z</time>
      </trkpt>
      <trkpt lat="48.86966" lon="2.02231">
        <ele>126</ele>
        <time>2014-03-27T15:56:50Z</time>
      </trkpt>
      <trkpt lat="48.86984" lon="2.02169">
        <ele>126</ele>
        <time>2014-03-27T15:57:02Z</time>
      </trkpt>
      <trkpt lat="48.86988" lon="2.02157">
        <ele>126</ele>
        <time>2014-03-27T15:57:05Z</time>
      </trkpt>
      <trkpt lat="48.87026" lon="2.02106">
        <ele>171</ele>
        <time>2014-03-27T15:57:33Z</time>
      </trkpt>
      <trkpt lat="48.87062" lon="2.0211">
        <ele>126</ele>
        <time>2014-03-27T15:57:51Z</time>
      </trkpt>
      <trkpt lat="48.8719" lon="2.02117">
        <ele>174.3</ele>
        <time>2014-03-27T15:58:30Z</time>
      </trkpt>
      <trkpt lat="48.87223" lon="2.02126">
        <ele>127</ele>
        <time>2014-03-27T15:59:03Z</time>
      </trkpt>
      <trkpt lat="48.87251" lon="2.02126">
        <ele>128</ele>
        <time>2014-03-27T15:59:31Z</time>
      </trkpt>
      <trkpt lat="48.87292" lon="2.02099">
        <ele>132</ele>
        <time>2014-03-27T16:00:13Z</time>
      </trkpt>
      <trkpt lat="48.87321" lon="2.02068">
        <ele>133</ele>
        <time>2014-03-27T16:00:32Z</time>
      </trkpt>
      <trkpt lat="48.87328" lon="2.02004">
        <ele>133</ele>
        <time>2014-03-27T16:01:09Z</time>
      </trkpt>
      <trkpt lat="48.87337" lon="2.01953">
        <ele>176</ele>
        <time>2014-03-27T16:01:45Z</time>
      </trkpt>
      <trkpt lat="48.87341" lon="2.01886">
        <ele>176.8</ele>
        <time>2014-03-27T16:02:05Z</time>
      </trkpt>
      <trkpt lat="48.87337" lon="2.01857">
        <ele>134</ele>
        <time>2014-03-27T16:02:14Z</time>
      </trkpt>
      <trkpt lat="48.87321" lon="2.01835">
        <ele>135</ele>
        <time>2014-03-27T16:02:23Z</time>
      </trkpt>
      <trkpt lat="48.8728" lon="2.01798">
        <ele>137</ele>
        <time>2014-03-27T16:02:44Z</time>
      </trkpt>
      <trkpt lat="48.87273" lon="2.01766">
        <ele>137</ele>
        <time>2014-03-27T16:02:50Z</time>
      </trkpt>
      <trkpt lat="48.87272" lon="2.01754">
        <ele>137</ele>
        <time>2014-03-27T16:02:52Z</time>
      </trkpt>
      <trkpt lat="48.87274" lon="2.01708">
        <ele>137</ele>
        <time>2014-03-27T16:03:10Z</time>
      </trkpt>
      <trkpt lat="48.87272" lon="2.01643">
        <ele>137</ele>
        <time>2014-03-27T16:03:21Z</time>
      </trkpt>
      <trkpt lat="48.87269" lon="2.01598">
        <ele>137</ele>
        <time>2014-03-27T16:03:29Z</time>
      </trkpt>
      <trkpt lat="48.87264" lon="2.01569">
        <ele>137</ele>
        <time>2014-03-27T16:03:37Z</time>
      </trkpt>
      <trkpt lat="48.87241" lon="2.01512">
        <ele>175.8</ele>
        <time>2014-03-27T16:03:59Z</time>
      </trkpt>
      <trkpt lat="48.87209" lon="2.01483">
        <ele>135</ele>
        <time>2014-03-27T16:04:14Z</time>
      </trkpt>
      <trkpt lat="48.8721" lon="2.0141">
        <ele>169.1</ele>
        <time>2014-03-27T16:04:30Z</time>
      </trkpt>
      <trkpt lat="48.87231" lon="2.01347">
        <ele>168</ele>
        <time>2014-03-27T16:04:43Z</time>
      </trkpt>
      <trkpt lat="48.87283" lon="2.01215">
        <ele>169.6</ele>
        <time>2014-03-27T16:05:13Z</time>
      </trkpt>
      <trkpt lat="48.87312" lon="2.01137">
        <ele>134</ele>
        <time>2014-03-27T16:05:48Z</time>
      </trkpt>
      <trkpt lat="48.87325" lon="2.01105">
        <ele>170.8</ele>
        <time>2014-03-27T16:06:27Z</time>
      </trkpt>
      <trkpt lat="48.87337" lon="2.01067">
        <ele>134</ele>
        <time>2014-03-27T16:06:37Z</time>
      </trkpt>
      <trkpt lat="48.87324" lon="2.01042">
        <ele>134</ele>
        <time>2014-03-27T16:06:59Z</time>
      </trkpt>
      <trkpt lat="48.87314" lon="2.01022">
        <ele>134</ele>
        <time>2014-03-27T16:07:17Z</time>
      </trkpt>
      <trkpt lat="48.87297" lon="2.01007">
        <ele>135</ele>
        <time>2014-03-27T16:07:32Z</time>
      </trkpt>
      <trkpt lat="48.87284" lon="2.00992">
        <ele>135</ele>
        <time>2014-03-27T16:07:44Z</time>
      </trkpt>
      <trkpt lat="48.87269" lon="2.00964">
        <ele>135</ele>
        <time>2014-03-27T16:08:04Z</time>
      </trkpt>
      <trkpt lat="48.87255" lon="2.00952">
        <ele>135</ele>
        <time>2014-03-27T16:08:14Z</time>
      </trkpt>
      <trkpt lat="48.87246" lon="2.00948">
        <ele>134</ele>
        <time>2014-03-27T16:08:21Z</time>
      </trkpt>
      <trkpt lat="48.87229" lon="2.00948">
        <ele>134</ele>
        <time>2014-03-27T16:08:34Z</time>
      </trkpt>
      <trkpt lat="48.87213" lon="2.00934">
        <ele>133</ele>
        <time>2014-03-27T16:08:45Z</time>
      </trkpt>
      <trkpt lat="48.87201" lon="2.00908">
        <ele>130</ele>
        <time>2014-03-27T16:09:00Z</time>
      </trkpt>
      <trkpt lat="48.87188" lon="2.00888">
        <ele>130</ele>
        <time>2014-03-27T16:09:09Z</time>
      </trkpt>
      <trkpt lat="48.87164" lon="2.00886">
        <ele>129</ele>
        <time>2014-03-27T16:09:35Z</time>
      </trkpt>
      <trkpt lat="48.87145" lon="2.00885">
        <ele>130</ele>
        <time>2014-03-27T16:09:48Z</time>
      </trkpt>
      <trkpt lat="48.87126" lon="2.00879">
        <ele>131</ele>
        <time>2014-03-27T16:09:57Z</time>
      </trkpt>
      <trkpt lat="48.8711" lon="2.00866">
        <ele>130</ele>
        <time>2014-03-27T16:10:07Z</time>
      </trkpt>
    </trkseg>
  </trk>
</gpx>